Flight Track Log - Related Links

Times and Time Zones

All times are in EDT time to prevent confusion due to time zone crossing. See the SPM1122 flight status page for this flight to view local times or setup timezone preferences in your user account.

Time Position Orientation Groundspeed Altitude Reporting Facility
EDT Latitude Longitude Course Direction KTS MPH feet Rate Location/Type
Wed 08:24:07 PM 44.8333 -63.5167 90° East 120 138 2,200  Level Moncton Center
Wed 08:25:07 PM 44.8333 -63.4833 90° East 190 219 4,200 1,850 Climbing Moncton Center
Wed 08:26:07 PM 44.8667 -63.4000 61° Northeast 210 242 5,900 1,650 Climbing Moncton Center
Wed 08:27:07 PM 44.8833 -63.3333 71° East 190 219 7,500 1,600 Climbing Moncton Center
Wed 08:28:07 PM 44.9000 -63.2667 71° East 190 219 9,100 1,400 Climbing Moncton Center
Wed 08:29:07 PM 44.9167 -63.2000 71° East 200 230 10,300 1,150 Climbing Moncton Center
Wed 08:30:07 PM 44.9333 -63.1167 74° East 200 230 11,400 1,200 Climbing Moncton Center
Wed 08:31:07 PM 44.9667 -63.0333 60° Northeast 210 242 12,700 1,150 Climbing Moncton Center
Wed 08:32:07 PM 44.9833 -62.9500 74° East 230 265 13,700 1,200 Climbing Moncton Center
Wed 08:33:07 PM 45.0167 -62.8667 60° Northeast 230 265 15,100 1,250 Climbing Moncton Center
Wed 08:34:07 PM 45.0333 -62.7833 74° East 220 253 16,200 1,100 Climbing Moncton Center
Wed 08:35:07 PM 45.0667 -62.7000 60° Northeast 220 253 17,300 950 Climbing Moncton Center
Wed 08:36:07 PM 45.0833 -62.6167 74° East 220 253 18,100 750 Climbing Moncton Center
Wed 08:37:07 PM 45.1000 -62.5500 70° East 220 253 18,800 700 Climbing Moncton Center
Wed 08:38:07 PM 45.1167 -62.4500 77° East 230 265 19,500 650 Climbing Moncton Center
Wed 08:39:07 PM 45.1500 -62.3833 55° Northeast 230 265 20,100 650 Climbing Moncton Center
Wed 08:40:07 PM 45.1667 -62.2833 77° East 240 276 20,800 450 Climbing Moncton Center
Wed 08:41:07 PM 45.2000 -62.1833 65° Northeast 240 276 21,000 100 Climbing Moncton Center
Wed 08:42:07 PM 45.2333 -62.1000 60° Northeast 270 311 21,000  Level Moncton Center
Wed 08:43:07 PM 45.2667 -62.0000 65° Northeast 280 322 21,000  Level Moncton Center
Wed 08:44:07 PM 45.3000 -61.8833 68° East 280 322 21,000  Level Moncton Center
Wed 08:44:31 PM 45.3167 -61.8500 55° Northeast 280 322 21,000  Level Gander Center
Wed 08:45:31 PM 45.3333 -61.7333 78° East 290 334 21,000  Level Gander Center
Wed 08:46:31 PM 45.3667 -61.6333 65° Northeast 290 334 21,000  Level Gander Center
Wed 08:47:07 PM 45.3833 -61.5667 70° East 290 334 21,000  Level Moncton Center
Wed 08:48:07 PM 45.4000 -61.4667 77° East 290 334 21,000  Level Moncton Center
Wed 08:53:47 PM 45.5890 -60.8940 77° East 21,000  Level FlightAware ADS-B
Wed 08:54:22 PM 45.6060 -60.8340 68° East 21,000  Level FlightAware ADS-B
Wed 08:55:12 PM 45.6300 -60.7460 69° East 21,000  Level FlightAware ADS-B
Wed 08:55:57 PM 45.6520 -60.6640 69° East 21,000  Level FlightAware ADS-B
Wed 08:56:37 PM 45.6710 -60.5950 68° East 21,000  Level FlightAware ADS-B
Wed 08:57:22 PM 45.6920 -60.5170 69° East 21,000  Level FlightAware ADS-B
Wed 08:58:02 PM 45.7110 -60.4460 69° East 21,000  Level FlightAware ADS-B
Wed 08:58:47 PM 45.7330 -60.3660 68° East 21,000  Level FlightAware ADS-B
Wed 08:59:27 PM 45.7520 -60.2950 69° East 21,000  Level FlightAware ADS-B
Wed 09:00:07 PM 45.7710 -60.2240 69° East 21,000  Level FlightAware ADS-B
Wed 09:00:47 PM 45.7900 -60.1530 69° East 21,000  Level FlightAware ADS-B
Wed 09:01:32 PM 45.8110 -60.0740 69° East 21,000  Level FlightAware ADS-B
Wed 09:02:17 PM 45.8320 -59.9930 70° East 21,000  Level FlightAware ADS-B
Wed 09:02:57 PM 45.8510 -59.9210 69° East 21,000  Level FlightAware ADS-B
Wed 09:03:37 PM 45.8700 -59.8490 69° East 21,000  Level FlightAware ADS-B
Wed 09:04:22 PM 45.8900 -59.7710 70° East 21,000  Level FlightAware ADS-B
Wed 09:05:02 PM 45.9090 -59.6990 69° East 21,000  Level FlightAware ADS-B
Wed 09:05:47 PM 45.9310 -59.6180 69° East 21,000  Level FlightAware ADS-B
Wed 09:06:27 PM 45.9490 -59.5470 70° East 21,000  Level FlightAware ADS-B
Wed 09:07:07 PM 45.9670 -59.4770 70° East 21,000  Level FlightAware ADS-B
Wed 09:07:52 PM 45.9870 -59.4000 69° East 21,000  Level FlightAware ADS-B
Wed 09:08:32 PM 46.0050 -59.3300 70° East 21,000  Level FlightAware ADS-B
Wed 09:09:17 PM 46.0260 -59.2490 69° East 21,000  Level FlightAware ADS-B
Wed 09:09:57 PM 46.0440 -59.1780 70° East 21,000  Level FlightAware ADS-B
Wed 09:10:42 PM 46.0640 -59.1000 70° East 21,000  Level FlightAware ADS-B
Wed 09:11:22 PM 46.0820 -59.0290 70° East 21,000  Level FlightAware ADS-B
Wed 09:12:02 PM 46.1000 -58.9570 70° East 21,000  Level FlightAware ADS-B
Wed 09:12:47 PM 46.1210 -58.8770 69° East 21,000  Level FlightAware ADS-B
Wed 09:13:27 PM 46.1380 -58.8050 71° East 21,000  Level FlightAware ADS-B
Wed 09:14:07 PM 46.1550 -58.7340 71° East 21,000  Level FlightAware ADS-B
Wed 09:14:52 PM 46.1730 -58.6540 72° East 21,000  Level FlightAware ADS-B
Wed 09:15:32 PM 46.1900 -58.5820 71° East 21,000  Level FlightAware ADS-B
Wed 09:17:27 PM 46.2380 -58.3740 71° East 21,000  Level FlightAware ADS-B
Wed 09:21:37 PM 46.3420 -57.9180 72° East 21,000  Level FlightAware ADS-B
Wed 09:22:07 PM 46.3333 -57.8167 72° East 290 334 21,000  Level Moncton Center
Wed 09:24:07 PM 46.3833 -57.6167 70° East 280 322 21,000  Level Moncton Center
Wed 09:25:07 PM 46.4167 -57.5000 67° East 280 322 21,000  Level Moncton Center
Wed 09:26:07 PM 46.4333 -57.4000 76° East 280 322 21,000 -700 Level Moncton Center
Wed 09:27:07 PM 46.4500 -57.2667 80° East 290 334 19,600 -1,600 Descending Moncton Center
Wed 09:28:07 PM 46.5000 -57.1500 58° Northeast 320 368 17,800 -1,933 Descending Moncton Center
Wed 09:30:07 PM 46.5333 -56.9167 78° East 310 357 13,800 -2,000 Descending Moncton Center
Wed 09:31:07 PM 46.5500 -56.8167 76° East 280 322 11,800 -1,250 Descending Moncton Center
Wed 09:32:07 PM 46.5833 -56.7167 64° Northeast 280 322 11,300 12,291 Descending Moncton Center
Wed 09:32:50 PM 42.7667 -68.2333 249° West 480 552 32,900 12,641 Climbing Moncton Center
Wed 09:33:50 PM 42.8000 -68.0833 73° East 480 552 33,000 50 Climbing Moncton Center
Wed 09:34:50 PM 42.8667 -67.9000 64° Northeast 480 552 33,000 -50 Level Moncton Center
Wed 09:35:50 PM 42.9167 -67.7500 65° Northeast 480 552 32,900 -100 Descending Moncton Center
Wed 09:37:00 PM 42.9563 -67.6528 61° Northeast  Level Estimated
Wed 09:44:00 PM 43.1921 -67.0669 61° Northeast  Level Estimated
Wed 09:45:00 PM 43.2255 -66.9828 61° Northeast  Level Estimated
Wed 09:46:00 PM 43.2589 -66.8987 61° Northeast  Level Estimated
Wed 09:47:00 PM 43.2922 -66.8144 61° Northeast  Level Estimated
Wed 09:48:00 PM 43.3255 -66.7301 62° Northeast  Level Estimated
Wed 09:49:00 PM 43.3587 -66.6456 62° Northeast  Level Estimated
Wed 09:50:00 PM 43.3918 -66.5611 62° Northeast  Level Estimated
Wed 09:51:00 PM 43.4249 -66.4765 62° Northeast  Level Estimated
Wed 09:52:00 PM 43.4579 -66.3918 62° Northeast  Level Estimated
Wed 09:53:00 PM 43.4908 -66.3070 62° Northeast  Level Estimated
Wed 09:54:00 PM 43.5237 -66.2221 62° Northeast  Level Estimated
Wed 09:55:00 PM 43.5565 -66.1371 62° Northeast  Level Estimated
Wed 09:56:00 PM 43.5892 -66.0520 62° Northeast  Level Estimated
Wed 09:57:00 PM 43.6219 -65.9668 62° Northeast  Level Estimated
Wed 09:58:00 PM 43.6546 -65.8816 62° Northeast  Level Estimated
Wed 09:59:00 PM 43.6871 -65.7962 62° Northeast  Level Estimated
Wed 10:00:00 PM 43.7196 -65.7107 62° Northeast  Level Estimated
Wed 10:01:00 PM 43.7521 -65.6252 62° Northeast  Level Estimated
Wed 10:02:00 PM 43.7844 -65.5396 62° Northeast  Level Estimated
Wed 10:03:00 PM 43.8167 -65.4538 62° Northeast  Level Estimated
Wed 10:04:00 PM 43.8490 -65.3680 62° Northeast  Level Estimated
Wed 10:05:00 PM 43.8812 -65.2821 63° Northeast  Level Estimated
Wed 10:06:00 PM 43.9133 -65.1961 63° Northeast  Level Estimated
Wed 10:07:00 PM 43.9454 -65.1100 63° Northeast  Level Estimated
Wed 10:08:00 PM 43.9773 -65.0238 63° Northeast  Level Estimated
Wed 10:09:00 PM 44.0093 -64.9375 63° Northeast  Level Estimated
Wed 10:10:00 PM 44.0411 -64.8511 63° Northeast  Level Estimated
Wed 10:11:00 PM 44.0729 -64.7646 63° Northeast  Level Estimated
Wed 10:12:00 PM 44.1046 -64.6781 63° Northeast  Level Estimated
Wed 10:13:00 PM 44.1363 -64.5914 63° Northeast  Level Estimated
Wed 10:14:00 PM 44.1679 -64.5047 63° Northeast  Level Estimated
Wed 10:15:00 PM 44.1994 -64.4178 63° Northeast  Level Estimated
Wed 10:16:00 PM 44.2309 -64.3309 63° Northeast  Level Estimated
Wed 10:17:00 PM 44.2623 -64.2439 63° Northeast  Level Estimated
Wed 10:18:00 PM 44.2936 -64.1567 63° Northeast  Level Estimated
Wed 10:19:00 PM 44.3249 -64.0695 63° Northeast  Level Estimated
Wed 10:20:00 PM 44.3561 -63.9822 63° Northeast  Level Estimated
Wed 10:21:00 PM 44.3872 -63.8948 63° Northeast  Level Estimated
Wed 10:22:00 PM 44.4183 -63.8073 64° Northeast  Level Estimated
Wed 10:23:00 PM 44.4493 -63.7197 64° Northeast  Level Estimated
Wed 10:24:00 PM 44.4802 -63.6320 64° Northeast  Level Estimated
Wed 10:25:00 PM 44.5111 -63.5443 64° Northeast  Level Estimated
Wed 10:26:00 PM 44.5419 -63.4564 64° Northeast  Level Estimated
Wed 10:27:00 PM 44.5726 -63.3684 64° Northeast  Level Estimated
Wed 10:28:00 PM 44.6033 -63.2804 64° Northeast  Level Estimated
Wed 10:29:00 PM 44.6339 -63.1922 64° Northeast  Level Estimated
Wed 10:30:00 PM 44.6644 -63.1040 64° Northeast  Level Estimated
Wed 10:31:00 PM 44.6949 -63.0157 64° Northeast  Level Estimated
Wed 10:32:00 PM 44.7253 -62.9272 64° Northeast  Level Estimated
Wed 10:33:00 PM 44.7556 -62.8387 64° Northeast  Level Estimated
Wed 10:34:00 PM 44.7858 -62.7501 64° Northeast  Level Estimated
Wed 10:35:00 PM 44.8160 -62.6614 64° Northeast  Level Estimated
Wed 10:36:00 PM 44.8461 -62.5726 64° Northeast  Level Estimated
Wed 10:37:00 PM 44.8762 -62.4837 64° Northeast  Level Estimated
Wed 10:38:00 PM 44.9062 -62.3947 65° Northeast  Level Estimated
Wed 10:39:00 PM 44.9361 -62.3057 65° Northeast  Level Estimated
Wed 10:40:00 PM 44.9659 -62.2165 65° Northeast  Level Estimated
Wed 10:41:00 PM 44.9957 -62.1272 65° Northeast  Level Estimated
Wed 10:42:00 PM 45.0254 -62.0379 65° Northeast  Level Estimated
Wed 10:43:00 PM 45.0550 -61.9484 65° Northeast  Level Estimated
Wed 10:44:00 PM 45.0846 -61.8589 65° Northeast  Level Estimated
Wed 10:45:00 PM 45.1141 -61.7693 65° Northeast  Level Estimated
Wed 10:46:00 PM 45.1435 -61.6796 65° Northeast  Level Estimated
Wed 10:47:00 PM 45.1728 -61.5897 65° Northeast  Level Estimated
Wed 10:48:00 PM 45.2021 -61.4998 65° Northeast  Level Estimated
Wed 10:49:00 PM 45.2313 -61.4098 65° Northeast  Level Estimated
Wed 10:50:00 PM 45.2605 -61.3197 65° Northeast  Level Estimated
Wed 10:51:00 PM 45.2895 -61.2296 65° Northeast  Level Estimated
Wed 10:52:00 PM 45.3185 -61.1393 65° Northeast  Level Estimated
Wed 10:53:00 PM 45.3475 -61.0489 65° Northeast  Level Estimated
Wed 10:54:00 PM 45.3763 -60.9585 66° East  Level Estimated
Wed 10:55:00 PM 45.4051 -60.8679 66° East  Level Estimated
Wed 10:56:00 PM 45.4338 -60.7772 66° East  Level Estimated
Wed 10:57:00 PM 45.4625 -60.6865 66° East  Level Estimated
Wed 10:58:00 PM 45.4910 -60.5957 66° East  Level Estimated
Wed 10:59:00 PM 45.5195 -60.5048 66° East  Level Estimated
Wed 11:00:00 PM 45.5480 -60.4137 66° East  Level Estimated
Wed 11:01:00 PM 45.5763 -60.3226 66° East  Level Estimated
Wed 11:02:00 PM 45.6046 -60.2314 66° East  Level Estimated
Wed 11:03:00 PM 45.6328 -60.1401 66° East  Level Estimated
Wed 11:04:00 PM 45.6609 -60.0488 66° East  Level Estimated
Wed 11:05:00 PM 45.6890 -59.9573 66° East  Level Estimated
Wed 11:06:00 PM 45.7170 -59.8657 66° East  Level Estimated
Wed 11:07:00 PM 45.7449 -59.7741 66° East  Level Estimated
Wed 11:08:00 PM 45.7727 -59.6823 66° East  Level Estimated
Wed 11:09:00 PM 45.8005 -59.5905 67° East  Level Estimated
Wed 11:10:00 PM 45.8282 -59.4986 67° East  Level Estimated
Wed 11:11:00 PM 45.8558 -59.4065 67° East  Level Estimated
Wed 11:12:00 PM 45.8834 -59.3144 67° East  Level Estimated
Wed 11:13:00 PM 45.9108 -59.2222 67° East  Level Estimated
Wed 11:14:00 PM 45.9382 -59.1299 67° East  Level Estimated
Wed 11:15:00 PM 45.9655 -59.0375 67° East  Level Estimated
Wed 11:16:00 PM 45.9928 -58.9450 67° East  Level Estimated
Wed 11:17:00 PM 46.0200 -58.8525 67° East  Level Estimated
Wed 11:18:00 PM 46.0471 -58.7598 67° East  Level Estimated
Wed 11:19:00 PM 46.0741 -58.6671 67° East  Level Estimated
Wed 11:20:00 PM 46.1011 -58.5742 67° East  Level Estimated
Wed 11:21:00 PM 46.1279 -58.4813 67° East  Level Estimated
Wed 11:22:00 PM 46.1547 -58.3883 67° East  Level Estimated
Wed 11:23:00 PM 46.1814 -58.2952 67° East  Level Estimated
Wed 11:24:00 PM 46.2081 -58.2020 68° East  Level Estimated
Wed 11:25:00 PM 46.2347 -58.1087 68° East  Level Estimated
Wed 11:26:00 PM 46.2612 -58.0153 68° East  Level Estimated
Wed 11:27:00 PM 46.2876 -57.9218 68° East  Level Estimated
Wed 11:28:00 PM 46.3139 -57.8282 68° East  Level Estimated
Wed 11:29:00 PM 46.3402 -57.7346 68° East  Level Estimated
Wed 11:30:00 PM 46.3664 -57.6408 68° East  Level Estimated
Wed 11:31:00 PM 46.3925 -57.5470 68° East  Level Estimated
Wed 11:32:00 PM 46.4185 -57.4530 68° East  Level Estimated
Wed 11:33:00 PM 46.4445 -57.3590 68° East  Level Estimated
Wed 11:34:00 PM 46.4704 -57.2649 68° East  Level Estimated
Wed 11:35:00 PM 46.4962 -57.1707 68° East  Level Estimated
Wed 11:36:00 PM 46.5219 -57.0765 68° East  Level Estimated
Wed 11:37:00 PM 46.5476 -56.9821 68° East  Level Estimated
Wed 11:38:00 PM 46.5731 -56.8876 68° East  Level Estimated
Wed 11:39:00 PM 46.5986 -56.7931 69° East  Level Estimated
Wed 11:40:00 PM 46.6241 -56.6984 69° East  Level Estimated
Wed 11:41:00 PM 46.6494 -56.6037 69° East  Level Estimated
Wed 11:42:00 PM 46.6746 -56.5089 69° East  Level Estimated

Login

Don't have an account? Register now (free) for customized features, flight alerts, and more!